EDT,Max TemperatureF,Mean TemperatureF,Min TemperatureF,Max Dew PointF,MeanDew PointF,Min DewpointF,Max Humidity, Mean Humidity, Min Humidity, Max Sea Level PressureIn, Mean Sea Level PressureIn, Min Sea Level PressureIn, Max VisibilityMiles, Mean VisibilityMiles, Min VisibilityMiles, Max Wind SpeedMPH, Mean Wind SpeedMPH, Max Gust SpeedMPH,PrecipitationIn, CloudCover, Events, WindDirDegrees
2011-10-1,48,44,41,46,43,37,100,95,87,30.08,30.00,29.93,10,8,2,8,2,,0.00,8,Rain,286
2011-10-2,59,47,35,43,37,34,100,72,39,30.13,30.08,30.02,10,10,10,9,2,,0.00,2,,288
2011-10-3,51,46,41,48,44,37,100,88,66,30.20,30.14,30.05,10,10,5,8,1,,0.00,6,Rain,246
2011-10-4,59,54,50,54,51,48,100,94,77,30.33,30.27,30.20,10,10,7,0,0,,0.00,8,,-1
2011-10-5,71,56,42,57,49,43,100,87,50,30.37,30.31,30.26,10,4,0,4,0,,0.00,5,Fog,90
2011-10-6,77,60,42,55,49,43,100,78,39,30.36,30.32,30.29,10,7,0,7,1,,0.00,2,Fog,79
2011-10-7,78,60,42,57,50,43,100,78,36,30.43,30.37,30.34,10,7,0,7,0,,0.00,2,Fog,102
2011-10-8,78,61,44,55,50,45,100,74,34,30.48,30.42,30.37,10,7,0,5,0,,0.00,0,,165
2011-10-9,75,58,41,55,48,41,100,76,31,30.46,30.39,30.32,10,4,0,8,1,,0.00,1,,95
2011-10-10,77,62,46,57,51,46,100,76,38,30.32,30.26,30.15,10,7,3,7,1,,0.00,0,,83
2011-10-11,73,62,51,55,52,46,100,75,41,30.15,30.09,30.01,10,9,5,6,1,,0.00,0,,92
2011-10-12,62,58,53,57,56,54,100,92,77,30.03,29.91,29.82,10,7,2,7,1,,0.00,8,Rain,178
2011-10-13,64,58,51,61,57,52,100,97,83,29.80,29.65,29.51,10,7,0,5,0,,0.00,5,Fog-Rain,113
2011-10-14,64,58,53,59,51,41,100,81,45,29.68,29.60,29.51,10,9,4,18,8,33,0.00,5,Rain,246
2011-10-15,66,54,41,43,39,32,100,64,32,29.90,29.85,29.77,10,10,10,18,6,29,0.00,0,,242
2011-10-16,77,60,42,46,42,39,93,57,29,30.06,29.95,29.75,10,10,10,24,7,32,0.00,0,,225
2011-10-17,69,58,46,46,39,32,87,51,26,29.99,29.91,29.84,10,10,10,13,3,17,0.00,2,,269
2011-10-18,69,56,42,50,45,37,100,70,37,29.88,29.79,29.64,10,10,10,8,1,,0.00,1,,82
2011-10-19,55,50,46,55,49,45,100,98,93,29.61,29.43,29.24,10,5,1,18,4,24,0.00,6,Rain,70
2011-10-20,44,42,41,45,40,37,100,91,87,29.81,29.51,29.36,10,8,3,23,15,36,0.00,7,Rain,230
2011-10-21,51,46,41,41,40,37,100,78,58,30.13,30.06,29.94,10,10,10,14,9,20,0.00,5,,234
2011-10-22,60,46,32,43,38,32,100,77,39,30.19,30.14,30.11,10,9,0,8,1,,0.00,2,Fog,244
2011-10-23,62,47,32,43,37,32,100,77,42,30.16,30.12,30.07,10,9,0,7,1,,0.00,2,Fog,225
2011-10-24,59,50,42,54,46,41,100,84,63,30.15,30.08,30.02,10,10,7,9,1,,0.00,2,Rain,234
2011-10-25,66,49,32,52,38,32,100,81,35,30.29,30.22,30.07,10,5,0,7,1,,0.00,4,Fog,194
2011-10-26,68,54,41,52,47,41,100,71,56,30.01,29.93,29.84,10,10,7,13,5,20,0.00,1,Rain,221
2011-10-27,57,50,42,57,50,37,100,96,81,30.08,29.84,29.74,10,6,2,12,5,17,0.00,8,Rain,286
2011-10-28,41,36,30,37,34,30,100,95,76,30.22,30.17,30.13,10,9,5,8,1,,0.00,2,Rain,60
2011-10-29,51,43,35,37,36,34,100,82,50,30.13,30.09,30.07,10,10,7,9,2,,0.00,5,Rain,287
2011-10-30,53,42,30,43,33,30,100,89,44,30.32,30.24,30.15,10,3,0,5,0,,0.00,6,Fog,279
2011-10-31,51,42,32,41,35,32,100,79,54,30.22,30.18,30.14,10,10,7,12,2,20,0.00,1,Rain,195